sensor_id;sensor_type;location;lat;lon;timestamp;pressure;altitude;pressure_sealevel;temperature;humidity
74659;BME280;63186;51.204;6.536;2022-12-18T00:01:03;102407.50;;;-6.63;89.27
74659;BME280;63186;51.204;6.536;2022-12-18T00:03:35;102409.84;;;-6.60;88.86
74659;BME280;63186;51.204;6.536;2022-12-18T00:06:00;102402.81;;;-6.61;88.90
74659;BME280;63186;51.204;6.536;2022-12-18T00:08:25;102404.66;;;-6.61;88.47
74659;BME280;63186;51.204;6.536;2022-12-18T00:10:51;102401.91;;;-6.69;88.76
74659;BME280;63186;51.204;6.536;2022-12-18T00:13:16;102410.84;;;-6.61;88.88
74659;BME280;63186;51.204;6.536;2022-12-18T00:15:41;102416.19;;;-6.61;88.65
74659;BME280;63186;51.204;6.536;2022-12-18T00:18:07;102415.53;;;-6.63;88.50
74659;BME280;63186;51.204;6.536;2022-12-18T00:20:38;102416.81;;;-6.67;88.82
74659;BME280;63186;51.204;6.536;2022-12-18T00:23:05;102423.13;;;-6.76;88.92
74659;BME280;63186;51.204;6.536;2022-12-18T00:25:35;102428.16;;;-6.73;88.74
74659;BME280;63186;51.204;6.536;2022-12-18T00:28:01;102421.47;;;-6.77;89.21
74659;BME280;63186;51.204;6.536;2022-12-18T00:30:27;102416.78;;;-6.75;88.94
74659;BME280;63186;51.204;6.536;2022-12-18T00:32:52;102419.66;;;-6.68;88.62
74659;BME280;63186;51.204;6.536;2022-12-18T00:35:17;102415.16;;;-6.68;88.71
74659;BME280;63186;51.204;6.536;2022-12-18T00:37:43;102409.50;;;-6.65;89.11
74659;BME280;63186;51.204;6.536;2022-12-18T00:40:09;102406.13;;;-6.67;88.43
74659;BME280;63186;51.204;6.536;2022-12-18T00:42:34;102392.22;;;-6.70;88.39
74659;BME280;63186;51.204;6.536;2022-12-18T00:45:18;102385.31;;;-6.73;88.39
74659;BME280;63186;51.204;6.536;2022-12-18T00:47:43;102394.25;;;-6.64;88.44
74659;BME280;63186;51.204;6.536;2022-12-18T00:50:09;102392.25;;;-6.62;88.52
74659;BME280;63186;51.204;6.536;2022-12-18T00:52:34;102392.09;;;-6.61;88.50
74659;BME280;63186;51.204;6.536;2022-12-18T00:54:59;102392.41;;;-6.64;88.29
74659;BME280;63186;51.204;6.536;2022-12-18T00:57:25;102391.22;;;-6.69;88.44
74659;BME280;63186;51.204;6.536;2022-12-18T00:59:50;102402.91;;;-6.70;88.43
74659;BME280;63186;51.204;6.536;2022-12-18T01:02:15;102395.72;;;-6.70;88.71
74659;BME280;63186;51.204;6.536;2022-12-18T01:04:40;102394.94;;;-6.62;88.42
74659;BME280;63186;51.204;6.536;2022-12-18T01:07:06;102405.31;;;-6.59;88.07
74659;BME280;63186;51.204;6.536;2022-12-18T01:09:31;102397.63;;;-6.62;88.26
74659;BME280;63186;51.204;6.536;2022-12-18T01:11:56;102402.81;;;-6.61;88.34
74659;BME280;63186;51.204;6.536;2022-12-18T01:14:22;102412.69;;;-6.61;88.50
74659;BME280;63186;51.204;6.536;2022-12-18T01:16:47;102411.50;;;-6.59;88.27
74659;BME280;63186;51.204;6.536;2022-12-18T01:19:12;102393.09;;;-6.62;88.37
74659;BME280;63186;51.204;6.536;2022-12-18T01:21:37;102390.56;;;-6.63;88.40
74659;BME280;63186;51.204;6.536;2022-12-18T01:24:04;102390.25;;;-6.60;88.01
74659;BME280;63186;51.204;6.536;2022-12-18T01:26:29;102392.41;;;-6.64;88.04
74659;BME280;63186;51.204;6.536;2022-12-18T01:28:55;102393.56;;;-6.66;88.54
74659;BME280;63186;51.204;6.536;2022-12-18T01:31:28;102390.84;;;-6.74;88.48
74659;BME280;63186;51.204;6.536;2022-12-18T01:33:54;102395.81;;;-6.79;88.71
74659;BME280;63186;51.204;6.536;2022-12-18T01:36:23;102396.97;;;-6.82;88.68
74659;BME280;63186;51.204;6.536;2022-12-18T01:38:51;102404.16;;;-6.82;88.62
74659;BME280;63186;51.204;6.536;2022-12-18T01:41:20;102401.50;;;-6.82;88.48
74659;BME280;63186;51.204;6.536;2022-12-18T01:43:57;102396.59;;;-6.87;88.98
74659;BME280;63186;51.204;6.536;2022-12-18T01:46:23;102394.13;;;-6.80;88.92
74659;BME280;63186;51.204;6.536;2022-12-18T01:48:58;102401.16;;;-6.79;88.49
74659;BME280;63186;51.204;6.536;2022-12-18T01:51:25;102400.38;;;-6.72;89.00
74659;BME280;63186;51.204;6.536;2022-12-18T01:53:51;102392.72;;;-6.67;88.35
74659;BME280;63186;51.204;6.536;2022-12-18T01:56:19;102402.75;;;-6.69;88.33
74659;BME280;63186;51.204;6.536;2022-12-18T02:01:15;102395.81;;;-6.79;88.38
74659;BME280;63186;51.204;6.536;2022-12-18T02:03:42;102395.13;;;-6.81;88.73
74659;BME280;63186;51.204;6.536;2022-12-18T02:09:11;102380.06;;;-6.82;88.37
74659;BME280;63186;51.204;6.536;2022-12-18T02:14:41;102389.81;;;-6.73;88.54
74659;BME280;63186;51.204;6.536;2022-12-18T02:17:17;102399.25;;;-6.69;87.95
74659;BME280;63186;51.204;6.536;2022-12-18T02:22:41;102380.53;;;-6.87;87.60
74659;BME280;63186;51.204;6.536;2022-12-18T02:28:02;102401.09;;;-6.70;88.30
74659;BME280;63186;51.204;6.536;2022-12-18T02:30:31;102390.84;;;-6.74;88.05
74659;BME280;63186;51.204;6.536;2022-12-18T02:32:59;102384.25;;;-6.80;88.15
74659;BME280;63186;51.204;6.536;2022-12-18T02:35:28;102381.97;;;-6.75;88.28
74659;BME280;63186;51.204;6.536;2022-12-18T02:37:55;102374.94;;;-6.76;87.73
74659;BME280;63186;51.204;6.536;2022-12-18T02:40:23;102379.75;;;-6.79;87.72
74659;BME280;63186;51.204;6.536;2022-12-18T02:42:49;102381.97;;;-6.75;87.86
74659;BME280;63186;51.204;6.536;2022-12-18T02:45:15;102382.72;;;-6.65;87.64
74659;BME280;63186;51.204;6.536;2022-12-18T02:47:43;102379.22;;;-6.57;87.60
74659;BME280;63186;51.204;6.536;2022-12-18T02:50:22;102380.91;;;-6.56;87.12
74659;BME280;63186;51.204;6.536;2022-12-18T02:58:52;102378.69;;;-6.61;87.38
74659;BME280;63186;51.204;6.536;2022-12-18T03:01:26;102381.22;;;-6.59;87.03
74659;BME280;63186;51.204;6.536;2022-12-18T03:03:55;102380.91;;;-6.56;87.19
74659;BME280;63186;51.204;6.536;2022-12-18T03:08:54;102374.88;;;-6.58;86.77
74659;BME280;63186;51.204;6.536;2022-12-18T03:11:21;102365.47;;;-6.62;86.89
74659;BME280;63186;51.204;6.536;2022-12-18T03:14:11;102355.56;;;-6.70;87.23
74659;BME280;63186;51.204;6.536;2022-12-18T03:16:39;102368.78;;;-6.68;87.14
74659;BME280;63186;51.204;6.536;2022-12-18T03:19:12;102374.47;;;-6.71;87.33
74659;BME280;63186;51.204;6.536;2022-12-18T03:21:46;102362.59;;;-6.69;87.40
74659;BME280;63186;51.204;6.536;2022-12-18T03:24:14;102361.41;;;-6.66;87.26
74659;BME280;63186;51.204;6.536;2022-12-18T03:26:43;102358.22;;;-6.70;87.46
74659;BME280;63186;51.204;6.536;2022-12-18T03:29:14;102366.78;;;-6.66;86.98
74659;BME280;63186;51.204;6.536;2022-12-18T03:31:47;102362.59;;;-6.69;87.22
74659;BME280;63186;51.204;6.536;2022-12-18T03:34:19;102363.25;;;-6.67;87.20
74659;BME280;63186;51.204;6.536;2022-12-18T03:36:46;102360.94;;;-6.62;87.34
74659;BME280;63186;51.204;6.536;2022-12-18T03:39:11;102358.94;;;-6.60;87.25
74659;BME280;63186;51.204;6.536;2022-12-18T03:41:43;102357.94;;;-6.59;86.95
74659;BME280;63186;51.204;6.536;2022-12-18T03:49:45;102357.69;;;-6.47;86.69
74659;BME280;63186;51.204;6.536;2022-12-18T03:52:33;102363.06;;;-6.39;86.36
74659;BME280;63186;51.204;6.536;2022-12-18T03:55:01;102347.69;;;-6.37;86.20
74659;BME280;63186;51.204;6.536;2022-12-18T03:57:30;102346.69;;;-6.36;85.99
74659;BME280;63186;51.204;6.536;2022-12-18T04:00:00;102351.88;;;-6.35;86.05
74659;BME280;63186;51.204;6.536;2022-12-18T04:02:26;102341.31;;;-6.36;86.10
74659;BME280;63186;51.204;6.536;2022-12-18T04:04:59;102338.66;;;-6.36;86.00
74659;BME280;63186;51.204;6.536;2022-12-18T04:07:25;102343.38;;;-6.30;86.29
74659;BME280;63186;51.204;6.536;2022-12-18T04:09:55;102344.88;;;-6.28;85.79
74659;BME280;63186;51.204;6.536;2022-12-18T04:12:27;102341.53;;;-6.21;85.58
74659;BME280;63186;51.204;6.536;2022-12-18T04:14:53;102338.38;;;-6.25;85.61
74659;BME280;63186;51.204;6.536;2022-12-18T04:17:19;102337.66;;;-6.27;85.89
74659;BME280;63186;51.204;6.536;2022-12-18T04:19:44;102340.50;;;-6.29;85.72
74659;BME280;63186;51.204;6.536;2022-12-18T04:22:10;102339.84;;;-6.31;85.68
74659;BME280;63186;51.204;6.536;2022-12-18T04:24:35;102339.81;;;-6.39;86.25
74659;BME280;63186;51.204;6.536;2022-12-18T04:27:00;102339.66;;;-6.37;85.87
74659;BME280;63186;51.204;6.536;2022-12-18T04:29:26;102341.50;;;-6.38;86.17
74659;BME280;63186;51.204;6.536;2022-12-18T04:31:51;102353.56;;;-6.34;85.59
74659;BME280;63186;51.204;6.536;2022-12-18T04:34:16;102344.03;;;-6.28;85.49
74659;BME280;63186;51.204;6.536;2022-12-18T04:36:42;102344.50;;;-6.33;85.70
74659;BME280;63186;51.204;6.536;2022-12-18T04:39:07;102329.28;;;-6.32;85.42
74659;BME280;63186;51.204;6.536;2022-12-18T04:41:32;102332.09;;;-6.34;85.80
74659;BME280;63186;51.204;6.536;2022-12-18T04:43:57;102331.59;;;-6.37;85.68
74659;BME280;63186;51.204;6.536;2022-12-18T04:46:23;102332.28;;;-6.35;86.03
74659;BME280;63186;51.204;6.536;2022-12-18T04:48:48;102326.06;;;-6.44;86.11
74659;BME280;63186;51.204;6.536;2022-12-18T04:51:13;102316.66;;;-6.48;86.35
74659;BME280;63186;51.204;6.536;2022-12-18T04:53:38;102310.09;;;-6.53;86.36
74659;BME280;63186;51.204;6.536;2022-12-18T04:56:05;102309.41;;;-6.56;86.36
74659;BME280;63186;51.204;6.536;2022-12-18T04:58:31;102316.81;;;-6.49;86.75
74659;BME280;63186;51.204;6.536;2022-12-18T05:00:56;102317.47;;;-6.47;86.48
74659;BME280;63186;51.204;6.536;2022-12-18T05:03:21;102307.59;;;-6.47;86.34
74659;BME280;63186;51.204;6.536;2022-12-18T05:05:50;102303.41;;;-6.49;86.39
74659;BME280;63186;51.204;6.536;2022-12-18T05:08:16;102306.09;;;-6.49;86.58
74659;BME280;63186;51.204;6.536;2022-12-18T05:10:41;102303.09;;;-6.46;86.56
74659;BME280;63186;51.204;6.536;2022-12-18T05:13:06;102308.81;;;-6.41;86.56
74659;BME280;63186;51.204;6.536;2022-12-18T05:15:32;102311.31;;;-6.40;86.36
74659;BME280;63186;51.204;6.536;2022-12-18T05:17:58;102322.41;;;-6.35;86.03
74659;BME280;63186;51.204;6.536;2022-12-18T05:20:24;102318.72;;;-6.34;86.38
74659;BME280;63186;51.204;6.536;2022-12-18T05:22:51;102322.09;;;-6.32;86.09
74659;BME280;63186;51.204;6.536;2022-12-18T05:25:17;102322.56;;;-6.36;86.46
74659;BME280;63186;51.204;6.536;2022-12-18T05:27:42;102325.06;;;-6.43;86.52
74659;BME280;63186;51.204;6.536;2022-12-18T05:30:08;102329.75;;;-6.45;86.56
74659;BME280;63186;51.204;6.536;2022-12-18T05:32:34;102340.50;;;-6.37;86.26
74659;BME280;63186;51.204;6.536;2022-12-18T05:34:59;102348.72;;;-6.30;86.34
74659;BME280;63186;51.204;6.536;2022-12-18T05:37:24;102352.72;;;-6.34;85.94
74659;BME280;63186;51.204;6.536;2022-12-18T05:39:49;102344.84;;;-6.36;86.13
74659;BME280;63186;51.204;6.536;2022-12-18T05:42:15;102360.75;;;-6.34;86.23
74659;BME280;63186;51.204;6.536;2022-12-18T05:44:40;102354.88;;;-6.38;86.33
74659;BME280;63186;51.204;6.536;2022-12-18T05:47:05;102352.31;;;-6.47;86.10
74659;BME280;63186;51.204;6.536;2022-12-18T05:49:30;102347.75;;;-6.55;86.91
74659;BME280;63186;51.204;6.536;2022-12-18T05:51:56;102338.84;;;-6.64;86.79
74659;BME280;63186;51.204;6.536;2022-12-18T05:54:21;102358.09;;;-6.60;86.95
74659;BME280;63186;51.204;6.536;2022-12-18T05:56:47;102358.44;;;-6.63;87.10
74659;BME280;63186;51.204;6.536;2022-12-18T05:59:12;102368.66;;;-6.59;87.19
74659;BME280;63186;51.204;6.536;2022-12-18T06:01:37;102376.38;;;-6.56;87.10
74659;BME280;63186;51.204;6.536;2022-12-18T06:04:02;102370.50;;;-6.59;86.77
74659;BME280;63186;51.204;6.536;2022-12-18T06:06:28;102381.59;;;-6.54;87.03
74659;BME280;63186;51.204;6.536;2022-12-18T06:08:54;102378.91;;;-6.54;86.75
74659;BME280;63186;51.204;6.536;2022-12-18T06:11:23;102373.88;;;-6.57;86.75
74659;BME280;63186;51.204;6.536;2022-12-18T06:13:53;102371.69;;;-6.53;86.99
74659;BME280;63186;51.204;6.536;2022-12-18T06:16:18;102366.03;;;-6.50;86.91
74659;BME280;63186;51.204;6.536;2022-12-18T06:18:44;102354.81;;;-6.46;86.58
74659;BME280;63186;51.204;6.536;2022-12-18T06:21:09;102364.88;;;-6.48;86.73
74659;BME280;63186;51.204;6.536;2022-12-18T06:23:35;102357.19;;;-6.43;86.79
74659;BME280;63186;51.204;6.536;2022-12-18T06:26:08;102351.69;;;-6.41;86.67
74659;BME280;63186;51.204;6.536;2022-12-18T06:28:33;102347.84;;;-6.39;86.74
74659;BME280;63186;51.204;6.536;2022-12-18T06:30:59;102332.81;;;-6.32;86.04
74659;BME280;63186;51.204;6.536;2022-12-18T06:33:27;102327.66;;;-6.25;86.44
74659;BME280;63186;51.204;6.536;2022-12-18T06:35:53;102326.00;;;-6.18;85.91
74659;BME280;63186;51.204;6.536;2022-12-18T06:38:18;102322.66;;;-6.12;85.80
74659;BME280;63186;51.204;6.536;2022-12-18T06:40:43;102329.88;;;-6.12;85.40
74659;BME280;63186;51.204;6.536;2022-12-18T06:43:09;102325.66;;;-6.15;85.45
74659;BME280;63186;51.204;6.536;2022-12-18T06:45:34;102328.84;;;-6.11;85.54
74659;BME280;63186;51.204;6.536;2022-12-18T06:47:59;102334.56;;;-6.06;85.64
74659;BME280;63186;51.204;6.536;2022-12-18T06:50:25;102320.84;;;-6.03;85.21
74659;BME280;63186;51.204;6.536;2022-12-18T06:52:50;102324.34;;;-6.03;85.10
74659;BME280;63186;51.204;6.536;2022-12-18T06:55:15;102328.69;;;-6.02;85.25
74659;BME280;63186;51.204;6.536;2022-12-18T06:57:41;102322.84;;;-6.05;85.38
74659;BME280;63186;51.204;6.536;2022-12-18T07:00:06;102329.22;;;-6.06;85.73
74659;BME280;63186;51.204;6.536;2022-12-18T07:02:32;102332.56;;;-6.04;85.42
74659;BME280;63186;51.204;6.536;2022-12-18T07:04:57;102332.03;;;-6.08;85.45
74659;BME280;63186;51.204;6.536;2022-12-18T07:07:23;102337.75;;;-6.11;85.64
74659;BME280;63186;51.204;6.536;2022-12-18T07:09:51;102330.19;;;-6.15;85.97
74659;BME280;63186;51.204;6.536;2022-12-18T07:12:17;102329.50;;;-6.17;86.04
74659;BME280;63186;51.204;6.536;2022-12-18T07:14:42;102332.38;;;-6.11;86.11
74659;BME280;63186;51.204;6.536;2022-12-18T07:17:08;102338.75;;;-6.12;86.13
74659;BME280;63186;51.204;6.536;2022-12-18T07:19:33;102335.03;;;-6.19;85.97
74659;BME280;63186;51.204;6.536;2022-12-18T07:21:58;102334.38;;;-6.13;85.85
74659;BME280;63186;51.204;6.536;2022-12-18T07:24:24;102334.38;;;-6.13;86.01
74659;BME280;63186;51.204;6.536;2022-12-18T07:26:49;102328.50;;;-6.16;85.68
74659;BME280;63186;51.204;6.536;2022-12-18T07:29:14;102334.53;;;-6.14;85.69
74659;BME280;63186;51.204;6.536;2022-12-18T07:31:40;102328.84;;;-6.11;85.85
74659;BME280;63186;51.204;6.536;2022-12-18T07:34:09;102330.19;;;-6.07;85.59
74659;BME280;63186;51.204;6.536;2022-12-18T07:36:35;102321.16;;;-6.06;85.78
74659;BME280;63186;51.204;6.536;2022-12-18T07:39:00;102307.78;;;-6.06;85.99
74659;BME280;63186;51.204;6.536;2022-12-18T07:41:25;102315.81;;;-5.98;85.33
74659;BME280;63186;51.204;6.536;2022-12-18T07:43:50;102320.00;;;-5.95;85.40
74659;BME280;63186;51.204;6.536;2022-12-18T07:46:16;102321.69;;;-5.94;85.15
74659;BME280;63186;51.204;6.536;2022-12-18T07:48:42;102326.34;;;-5.88;85.06
74659;BME280;63186;51.204;6.536;2022-12-18T07:51:08;102328.22;;;-5.81;84.68
74659;BME280;63186;51.204;6.536;2022-12-18T07:53:34;102316.34;;;-5.70;84.58
74659;BME280;63186;51.204;6.536;2022-12-18T07:56:03;102314.84;;;-5.64;84.39
74659;BME280;63186;51.204;6.536;2022-12-18T07:58:30;102309.47;;;-5.64;83.98
74659;BME280;63186;51.204;6.536;2022-12-18T08:01:05;102306.78;;;-5.64;84.15
74659;BME280;63186;51.204;6.536;2022-12-18T08:03:31;102297.72;;;-5.63;83.97
74659;BME280;63186;51.204;6.536;2022-12-18T08:06:00;102300.09;;;-5.52;84.14
74659;BME280;63186;51.204;6.536;2022-12-18T08:08:26;102282.81;;;-5.50;83.68
74659;BME280;63186;51.204;6.536;2022-12-18T08:10:52;102277.78;;;-5.44;83.29
74659;BME280;63186;51.204;6.536;2022-12-18T08:13:17;102270.41;;;-5.42;83.38
74659;BME280;63186;51.204;6.536;2022-12-18T08:15:42;102257.31;;;-5.37;83.50
74659;BME280;63186;51.204;6.536;2022-12-18T08:18:07;102258.81;;;-5.35;83.27
74659;BME280;63186;51.204;6.536;2022-12-18T08:20:33;102258.47;;;-5.24;82.89
74659;BME280;63186;51.204;6.536;2022-12-18T08:22:58;102248.22;;;-5.12;82.64
74659;BME280;63186;51.204;6.536;2022-12-18T08:25:23;102249.03;;;-5.03;82.14
74659;BME280;63186;51.204;6.536;2022-12-18T08:27:49;102261.09;;;-4.91;81.89
74659;BME280;63186;51.204;6.536;2022-12-18T08:30:14;102262.44;;;-4.87;81.76
74659;BME280;63186;51.204;6.536;2022-12-18T08:32:39;102264.06;;;-4.78;81.51
74659;BME280;63186;51.204;6.536;2022-12-18T08:35:05;102271.75;;;-4.67;80.84
74659;BME280;63186;51.204;6.536;2022-12-18T08:37:30;102265.84;;;-4.54;80.49
74659;BME280;63186;51.204;6.536;2022-12-18T08:39:56;102268.44;;;-4.38;80.25
74659;BME280;63186;51.204;6.536;2022-12-18T08:42:21;102258.69;;;-4.07;78.87
74659;BME280;63186;51.204;6.536;2022-12-18T08:45:05;102253.41;;;-3.70;77.63
74659;BME280;63186;51.204;6.536;2022-12-18T08:47:30;102256.03;;;-3.09;75.30
74659;BME280;63186;51.204;6.536;2022-12-18T08:49:56;102248.91;;;-2.72;74.03
74659;BME280;63186;51.204;6.536;2022-12-18T08:52:21;102248.63;;;-2.63;73.09
74659;BME280;63186;51.204;6.536;2022-12-18T08:54:46;102247.31;;;-2.52;72.73
74659;BME280;63186;51.204;6.536;2022-12-18T08:57:12;102237.47;;;-2.60;72.70
74659;BME280;63186;51.204;6.536;2022-12-18T08:59:37;102248.31;;;-2.38;71.81
74659;BME280;63186;51.204;6.536;2022-12-18T09:02:02;102242.31;;;-2.70;72.96
74659;BME280;63186;51.204;6.536;2022-12-18T09:04:27;102255.50;;;-2.75;73.27
74659;BME280;63186;51.204;6.536;2022-12-18T09:06:53;102254.75;;;-2.69;73.63
74659;BME280;63186;51.204;6.536;2022-12-18T09:09:20;102249.81;;;-2.95;73.60
74659;BME280;63186;51.204;6.536;2022-12-18T09:11:46;102261.81;;;-2.97;73.93
74659;BME280;63186;51.204;6.536;2022-12-18T09:14:11;102260.25;;;-2.92;74.40
74659;BME280;63186;51.204;6.536;2022-12-18T09:16:37;102254.47;;;-2.89;73.99
74659;BME280;63186;51.204;6.536;2022-12-18T09:19:04;102270.75;;;-2.53;73.18
74659;BME280;63186;51.204;6.536;2022-12-18T09:21:31;102260.44;;;-2.13;71.24
74659;BME280;63186;51.204;6.536;2022-12-18T09:23:57;102241.28;;;-2.18;71.29
74659;BME280;63186;51.204;6.536;2022-12-18T09:26:24;102245.09;;;-2.12;71.77
74659;BME280;63186;51.204;6.536;2022-12-18T09:28:50;102238.78;;;-2.20;71.67
74659;BME280;63186;51.204;6.536;2022-12-18T09:31:17;102228.63;;;-2.17;71.54
74659;BME280;63186;51.204;6.536;2022-12-18T09:33:43;102221.97;;;-2.36;72.15
74659;BME280;63186;51.204;6.536;2022-12-18T09:36:12;102232.25;;;-2.47;72.97
74659;BME280;63186;51.204;6.536;2022-12-18T09:38:38;102220.22;;;-2.44;73.05
74659;BME280;63186;51.204;6.536;2022-12-18T09:41:17;102216.34;;;-2.56;72.99
74659;BME280;63186;51.204;6.536;2022-12-18T09:43:48;102213.72;;;-2.50;72.76
74659;BME280;63186;51.204;6.536;2022-12-18T09:46:26;102220.38;;;-2.67;73.98
74659;BME280;63186;51.204;6.536;2022-12-18T09:48:56;102221.84;;;-2.64;73.43
74659;BME280;63186;51.204;6.536;2022-12-18T09:51:27;102215.91;;;-2.75;73.69
74659;BME280;63186;51.204;6.536;2022-12-18T09:53:57;102213.78;;;-2.79;74.19
74659;BME280;63186;51.204;6.536;2022-12-18T09:56:26;102210.63;;;-2.83;74.53
74659;BME280;63186;51.204;6.536;2022-12-18T09:58:58;102204.88;;;-2.80;73.66
74659;BME280;63186;51.204;6.536;2022-12-18T10:01:25;102191.75;;;-2.83;73.98
74659;BME280;63186;51.204;6.536;2022-12-18T10:03:52;102189.34;;;-2.78;74.25
74659;BME280;63186;51.204;6.536;2022-12-18T10:06:27;102192.94;;;-2.70;74.74
74659;BME280;63186;51.204;6.536;2022-12-18T10:17:02;102205.66;;;-2.50;74.02
74659;BME280;63186;51.204;6.536;2022-12-18T10:19:50;102211.31;;;-2.44;74.28
74659;BME280;63186;51.204;6.536;2022-12-18T10:22:35;102204.63;;;-2.49;73.60
74659;BME280;63186;51.204;6.536;2022-12-18T10:25:21;102205.19;;;-2.53;73.39
74659;BME280;63186;51.204;6.536;2022-12-18T10:27:48;102186.84;;;-2.43;74.11
74659;BME280;63186;51.204;6.536;2022-12-18T10:30:19;102175.22;;;-2.43;73.51
74659;BME280;63186;51.204;6.536;2022-12-18T10:32:44;102178.19;;;-2.38;73.52
74659;BME280;63186;51.204;6.536;2022-12-18T10:35:21;102173.69;;;-2.31;73.20
74659;BME280;63186;51.204;6.536;2022-12-18T10:40:26;102174.19;;;-2.42;73.35
74659;BME280;63186;51.204;6.536;2022-12-18T10:43:13;102179.59;;;-2.42;73.30
74659;BME280;63186;51.204;6.536;2022-12-18T10:45:40;102167.13;;;-2.43;73.23
74659;BME280;63186;51.204;6.536;2022-12-18T10:48:18;102163.69;;;-2.37;73.43
74659;BME280;63186;51.204;6.536;2022-12-18T10:50:47;102170.19;;;-2.32;74.07
74659;BME280;63186;51.204;6.536;2022-12-18T10:53:25;102172.66;;;-2.30;73.77
74659;BME280;63186;51.204;6.536;2022-12-18T10:55:53;102152.75;;;-2.29;72.73
74659;BME280;63186;51.204;6.536;2022-12-18T10:58:34;102159.25;;;-2.24;73.53
74659;BME280;63186;51.204;6.536;2022-12-18T11:03:42;102147.63;;;-2.24;72.61
74659;BME280;63186;51.204;6.536;2022-12-18T11:06:11;102156.13;;;-2.27;72.72
74659;BME280;63186;51.204;6.536;2022-12-18T11:08:37;102164.09;;;-2.19;73.54
74659;BME280;63186;51.204;6.536;2022-12-18T11:11:07;102133.94;;;-2.23;72.46
74659;BME280;63186;51.204;6.536;2022-12-18T11:13:39;102134.97;;;-2.24;72.96
74659;BME280;63186;51.204;6.536;2022-12-18T11:16:05;102128.19;;;-2.20;72.99
74659;BME280;63186;51.204;6.536;2022-12-18T11:18:34;102131.72;;;-2.19;72.97
74659;BME280;63186;51.204;6.536;2022-12-18T11:23:28;102121.34;;;-2.15;73.43
74659;BME280;63186;51.204;6.536;2022-12-18T11:25:56;102125.53;;;-2.13;73.02
74659;BME280;63186;51.204;6.536;2022-12-18T11:28:36;102113.25;;;-2.15;73.21
74659;BME280;63186;51.204;6.536;2022-12-18T11:31:29;102101.47;;;-2.14;73.30
74659;BME280;63186;51.204;6.536;2022-12-18T11:34:11;102106.03;;;-2.15;73.62
74659;BME280;63186;51.204;6.536;2022-12-18T11:36:44;102101.06;;;-2.11;72.98
74659;BME280;63186;51.204;6.536;2022-12-18T11:39:27;102084.50;;;-2.08;72.68
74659;BME280;63186;51.204;6.536;2022-12-18T11:41:59;102086.09;;;-2.14;73.46
74659;BME280;63186;51.204;6.536;2022-12-18T11:44:57;102093.59;;;-2.09;73.47
74659;BME280;63186;51.204;6.536;2022-12-18T11:47:34;102098.63;;;-2.06;73.67
74659;BME280;63186;51.204;6.536;2022-12-18T11:50:05;102083.25;;;-2.06;73.46
74659;BME280;63186;51.204;6.536;2022-12-18T11:52:39;102071.44;;;-2.05;73.78
74659;BME280;63186;51.204;6.536;2022-12-18T11:55:12;102082.03;;;-2.03;73.74
74659;BME280;63186;51.204;6.536;2022-12-18T12:00:15;102073.56;;;-2.00;72.78
74659;BME280;63186;51.204;6.536;2022-12-18T12:08:07;102068.22;;;-1.94;72.72
74659;BME280;63186;51.204;6.536;2022-12-18T12:10:51;102066.34;;;-1.93;72.38
74659;BME280;63186;51.204;6.536;2022-12-18T12:13:29;102068.00;;;-1.92;72.00
74659;BME280;63186;51.204;6.536;2022-12-18T12:16:20;102068.84;;;-1.92;72.08
74659;BME280;63186;51.204;6.536;2022-12-18T12:22:03;102054.50;;;-1.92;71.63
74659;BME280;63186;51.204;6.536;2022-12-18T12:24:49;102037.06;;;-1.89;71.19
74659;BME280;63186;51.204;6.536;2022-12-18T12:38:28;102045.59;;;-1.93;72.14
74659;BME280;63186;51.204;6.536;2022-12-18T12:41:02;102034.34;;;-1.96;72.40
74659;BME280;63186;51.204;6.536;2022-12-18T12:43:44;102038.91;;;-1.97;72.32
74659;BME280;63186;51.204;6.536;2022-12-18T12:46:13;102031.84;;;-1.98;71.31
74659;BME280;63186;51.204;6.536;2022-12-18T12:48:47;102042.63;;;-1.98;71.93
74659;BME280;63186;51.204;6.536;2022-12-18T12:51:23;102026.84;;;-2.01;72.57
74659;BME280;63186;51.204;6.536;2022-12-18T12:53:50;102011.50;;;-2.00;72.19
74659;BME280;63186;51.204;6.536;2022-12-18T12:56:18;102027.22;;;-2.04;72.82
74659;BME280;63186;51.204;6.536;2022-12-18T13:01:52;102025.81;;;-2.00;73.72
74659;BME280;63186;51.204;6.536;2022-12-18T13:04:52;102016.44;;;-2.04;73.11
74659;BME280;63186;51.204;6.536;2022-12-18T13:10:30;102002.31;;;-2.06;72.98
74659;BME280;63186;51.204;6.536;2022-12-18T13:13:14;102010.84;;;-2.02;73.35
74659;BME280;63186;51.204;6.536;2022-12-18T13:15:48;101997.34;;;-2.02;72.94
74659;BME280;63186;51.204;6.536;2022-12-18T13:18:18;101981.16;;;-2.02;73.14
74659;BME280;63186;51.204;6.536;2022-12-18T13:20:47;101994.00;;;-2.04;72.77
74659;BME280;63186;51.204;6.536;2022-12-18T13:25:47;101957.47;;;-2.07;71.32
74659;BME280;63186;51.204;6.536;2022-12-18T13:28:14;101975.13;;;-2.04;72.15
74659;BME280;63186;51.204;6.536;2022-12-18T13:36:09;101954.00;;;-2.01;72.50
74659;BME280;63186;51.204;6.536;2022-12-18T13:38:36;101963.97;;;-2.01;72.76
74659;BME280;63186;51.204;6.536;2022-12-18T13:41:21;101954.38;;;-2.04;71.87
74659;BME280;63186;51.204;6.536;2022-12-18T13:43:49;101963.53;;;-1.98;71.39
74659;BME280;63186;51.204;6.536;2022-12-18T13:46:29;101949.22;;;-1.99;71.49
74659;BME280;63186;51.204;6.536;2022-12-18T13:49:05;101962.34;;;-1.96;72.30
74659;BME280;63186;51.204;6.536;2022-12-18T13:51:51;101945.09;;;-1.95;71.92
74659;BME280;63186;51.204;6.536;2022-12-18T13:56:44;101945.47;;;-1.98;72.04
74659;BME280;63186;51.204;6.536;2022-12-18T13:59:23;101950.69;;;-1.96;72.54
74659;BME280;63186;51.204;6.536;2022-12-18T14:01:54;101950.06;;;-1.98;71.90
74659;BME280;63186;51.204;6.536;2022-12-18T14:04:29;101949.44;;;-2.00;72.62
74659;BME280;63186;51.204;6.536;2022-12-18T14:07:07;101947.75;;;-2.01;71.79
74659;BME280;63186;51.204;6.536;2022-12-18T14:09:39;101952.34;;;-2.02;72.44
74659;BME280;63186;51.204;6.536;2022-12-18T14:12:06;101942.53;;;-2.03;72.15
74659;BME280;63186;51.204;6.536;2022-12-18T14:14:51;101937.56;;;-2.06;72.24
74659;BME280;63186;51.204;6.536;2022-12-18T14:17:18;101930.28;;;-2.05;71.99
74659;BME280;63186;51.204;6.536;2022-12-18T14:19:48;101935.06;;;-2.07;72.17
74659;BME280;63186;51.204;6.536;2022-12-18T14:22:23;101920.91;;;-2.09;72.88